Time;durP1;ratioP1;P1;durP2;ratioP2;P2;SDS_P1;SDS_P2;PMS_P1;PMS_P2;Temp;Humidity;BMP_temperature;BMP_pressure;BME280_temperature;BME280_humidity;BME280_pressure;Samples;Min_cycle;Max_cycle;Signal;HPM_P1;HPM_P2
2022/07/16 09:25:29;;;;;;;;;;;;;;;28.58;100.00;98442.19;5797690;24;19988;31
2022/07/16 09:27:57;;;;;;;;;;;;;;;28.59;100.00;98445.84;4751959;30;19963;-73
2022/07/16 09:30:25;;;;;;;;;;;;;;;28.77;100.00;98454.06;4753559;30;19954;-73
2022/07/16 09:32:53;;;;;;;;;;;;;;;28.73;100.00;98442.03;4754834;30;19951;-73
2022/07/16 09:35:22;;;;;;;;;;;;;;;28.70;100.00;98445.13;4753896;30;21523;-72
2022/07/16 09:37:51;;;;;;;;;;;;;;;28.85;100.00;98458.03;4756951;30;19959;-73
2022/07/16 09:40:35;;;;;;;;;;;;;;;29.01;100.00;98440.00;4753861;30;19960;-72
2022/07/16 09:43:04;;;;;;;;;;;;;;;29.23;100.00;98445.06;4752847;30;19956;-72
2022/07/16 09:45:32;;;;;;;;;;;;;;;29.37;100.00;98452.66;4755476;30;19964;-72
2022/07/16 09:47:59;;;;;;;;;;;;;;;29.21;100.00;98444.78;4754556;30;19957;-72
2022/07/16 09:50:34;;;;;;;;;;;;;;;28.98;100.00;98443.13;4761718;30;19950;-72
2022/07/16 09:53:18;;;;;;;;;;;;;;;28.90;100.00;98448.63;4755001;30;19957;-72
2022/07/16 09:55:54;;;;;;;;;;;;;;;29.02;100.00;98440.81;4755263;30;19951;-72
2022/07/16 09:58:21;;;;;;;;;;;;;;;29.17;100.00;98438.47;4751746;30;19957;-72
2022/07/16 10:00:48;;;;;;;;;;;;;;;29.20;100.00;98446.09;4754824;30;19956;-70
2022/07/16 10:03:16;;;;;;;;;;;;;;;29.31;100.00;98439.56;4754346;30;19954;-70
2022/07/16 10:05:43;;;;;;;;;;;;;;;29.26;100.00;98444.00;4754067;30;19975;-70
2022/07/16 10:08:10;;;;;;;;;;;;;;;29.38;100.00;98444.81;4754735;30;19954;-70
2022/07/16 10:10:37;;;;;;;;;;;;;;;29.32;100.00;98446.91;4754595;30;19949;-70
2022/07/16 10:13:05;;;;;;;;;;;;;;;29.37;100.00;98443.25;4753809;30;19955;-70
2022/07/16 10:15:32;;;;;;;;;;;;;;;29.24;100.00;98441.66;4754756;30;19959;-70
2022/07/16 10:18:00;;;;;;;;;;;;;;;29.42;100.00;98433.84;4755092;30;19964;-70
2022/07/16 10:20:33;;;;;;;;;;;;;;;29.59;100.00;98432.50;4754662;30;19950;-70
2022/07/16 10:23:04;;;;;;;;;;;;;;;29.51;100.00;98433.56;4754866;30;19952;-70
2022/07/16 10:25:35;;;;;;;;;;;;;;;29.67;100.00;98433.56;4755887;30;19979;-69
2022/07/16 10:28:02;;;;;;;;;;;;;;;29.80;97.82;98438.84;4757551;30;19952;-69
2022/07/16 10:30:30;;;;;;;;;;;;;;;29.92;100.00;98431.75;4758522;30;19957;-70
2022/07/16 10:33:05;;;;;;;;;;;;;;;30.05;99.73;98439.84;4758221;30;19952;-69
2022/07/16 10:35:52;;;;;;;;;;;;;;;30.15;97.39;98435.38;4757679;30;19950;-69
2022/07/16 10:38:21;;;;;;;;;;;;;;;30.20;90.67;98435.34;4756595;30;19954;-70
2022/07/16 10:41:10;;;;;;;;;;;;;;;30.15;90.74;98436.13;4757845;30;19962;-69
2022/07/16 10:43:37;;;;;;;;;;;;;;;30.01;88.36;98433.53;4758039;30;19946;-70
2022/07/16 10:46:06;;;;;;;;;;;;;;;29.97;91.37;98428.06;4757984;30;19982;-70
2022/07/16 10:48:36;;;;;;;;;;;;;;;30.07;94.75;98429.34;4757735;30;19952;-69
2022/07/16 10:51:09;;;;;;;;;;;;;;;30.25;99.15;98425.88;4757390;30;19954;-70
2022/07/16 10:53:55;;;;;;;;;;;;;;;30.27;95.90;98436.91;4756941;30;19961;-70
2022/07/16 10:56:38;;;;;;;;;;;;;;;30.37;91.53;98420.94;4757311;30;19947;-70
2022/07/16 10:59:07;;;;;;;;;;;;;;;30.30;95.17;98422.22;4757687;30;19952;-70
2022/07/16 11:01:35;;;;;;;;;;;;;;;30.16;100.00;98410.97;4742033;30;19964;-70
2022/07/16 11:04:03;;;;;;;;;;;;;;;30.24;99.91;98407.03;4755793;30;19956;-70
2022/07/16 11:06:31;;;;;;;;;;;;;;;30.21;97.67;98404.41;4757173;30;19978;-70
2022/07/16 11:08:59;;;;;;;;;;;;;;;30.21;92.56;98410.97;4757800;30;20399;-70
2022/07/16 11:11:32;;;;;;;;;;;;;;;30.31;95.56;98405.69;4750442;30;19952;-70
2022/07/16 11:14:00;;;;;;;;;;;;;;;30.43;99.00;98407.25;4757634;30;19961;-70
2022/07/16 11:16:27;;;;;;;;;;;;;;;30.36;93.90;98405.72;4756554;30;19952;-70
2022/07/16 11:18:55;;;;;;;;;;;;;;;30.50;96.61;98409.56;4757101;30;19957;-70
2022/07/16 11:21:22;;;;;;;;;;;;;;;30.34;94.87;98414.13;4757117;30;19958;-70
2022/07/16 11:23:51;;;;;;;;;;;;;;;30.53;100.00;98402.75;4756521;30;19961;-70
2022/07/16 11:26:24;;;;;;;;;;;;;;;30.42;96.32;98406.44;4756668;30;20231;-70
2022/07/16 11:28:53;;;;;;;;;;;;;;;30.55;99.83;98395.13;4757747;30;19953;-70
2022/07/16 11:31:24;;;;;;;;;;;;;;;30.69;98.21;98401.13;4756180;30;19964;-70
2022/07/16 11:33:58;;;;;;;;;;;;;;;30.49;91.83;98388.59;4756439;30;19957;-70
2022/07/16 11:36:29;;;;;;;;;;;;;;;30.71;91.55;98393.50;4745070;30;19959;-70
2022/07/16 11:39:06;;;;;;;;;;;;;;;30.76;93.09;98392.69;4754559;30;19959;-70
2022/07/16 11:41:35;;;;;;;;;;;;;;;30.81;94.91;98396.84;4744541;30;20371;-70
2022/07/16 11:44:10;;;;;;;;;;;;;;;30.84;95.73;98395.75;4751135;30;19958;-70
2022/07/16 11:46:43;;;;;;;;;;;;;;;30.90;98.11;98397.34;4752010;30;19969;-69
2022/07/16 11:49:11;;;;;;;;;;;;;;;30.93;90.25;98395.50;4756221;30;19953;-70
2022/07/16 11:51:39;;;;;;;;;;;;;;;30.76;95.21;98395.56;4756532;30;19953;-70
2022/07/16 11:54:07;;;;;;;;;;;;;;;30.81;95.30;98385.31;4756610;30;19953;-70
2022/07/16 11:56:36;;;;;;;;;;;;;;;30.91;96.69;98389.47;4756295;30;20251;-70
2022/07/16 11:59:15;;;;;;;;;;;;;;;30.78;93.38;98389.25;4757467;30;19954;-70
2022/07/16 12:01:42;;;;;;;;;;;;;;;30.64;93.01;98382.47;4755860;30;20269;-70
2022/07/16 12:04:09;;;;;;;;;;;;;;;30.88;88.08;98381.84;4751344;30;19963;-69
2022/07/16 12:06:37;;;;;;;;;;;;;;;30.92;89.96;98380.25;4754169;30;19962;-70
2022/07/16 12:09:04;;;;;;;;;;;;;;;30.82;90.42;98386.84;4756494;30;20668;-70
2022/07/16 12:12:05;;;;;;;;;;;;;;;30.84;90.49;98382.13;4756770;30;19955;-70
2022/07/16 12:14:50;;;;;;;;;;;;;;;30.73;92.62;98379.31;4755962;30;19953;-70
2022/07/16 12:17:39;;;;;;;;;;;;;;;30.72;88.28;98376.94;4752572;30;19954;-70
2022/07/16 12:20:17;;;;;;;;;;;;;;;30.79;91.39;98385.06;4754012;30;20691;-70
2022/07/16 12:22:51;;;;;;;;;;;;;;;30.97;89.69;98378.66;4756394;30;19953;-70
2022/07/16 12:25:21;;;;;;;;;;;;;;;30.96;89.55;98380.00;4756232;30;19950;-70
2022/07/16 12:27:53;;;;;;;;;;;;;;;31.04;91.13;98372.31;4746441;30;19977;-70
2022/07/16 12:30:30;;;;;;;;;;;;;;;31.08;90.99;98382.25;4754705;30;20366;-70
2022/07/16 12:32:59;;;;;;;;;;;;;;;31.13;88.16;98372.75;4755479;30;19955;-70
2022/07/16 12:35:38;;;;;;;;;;;;;;;31.27;88.35;98373.72;4755207;30;20246;-70
2022/07/16 12:38:06;;;;;;;;;;;;;;;31.33;91.45;98368.66;4744198;30;19956;-70
2022/07/16 12:40:34;;;;;;;;;;;;;;;31.33;90.58;98373.66;4756053;30;19966;-70
2022/07/16 12:43:02;;;;;;;;;;;;;;;31.20;84.55;98374.31;4755616;30;19973;-70
2022/07/16 12:45:29;;;;;;;;;;;;;;;31.25;86.28;98364.81;4755089;30;20265;-70
2022/07/16 12:47:56;;;;;;;;;;;;;;;31.37;88.26;98366.28;4755492;30;19974;-70
2022/07/16 12:50:25;;;;;;;;;;;;;;;31.49;86.58;98367.00;4755566;30;19962;-70
2022/07/16 12:52:52;;;;;;;;;;;;;;;31.61;88.02;98357.69;4755633;30;19960;-70
2022/07/16 13:00:50;;;;;;;;;;;;;;;31.59;81.41;98360.34;4755518;30;19951;-70
2022/07/16 13:03:18;;;;;;;;;;;;;;;31.65;83.62;98360.28;4755462;30;20211;-70
2022/07/16 13:05:45;;;;;;;;;;;;;;;31.55;85.57;98359.06;4755500;30;20332;-70
2022/07/16 13:08:12;;;;;;;;;;;;;;;31.51;80.63;98365.16;4755318;30;19969;-70
2022/07/16 13:10:40;;;;;;;;;;;;;;;31.45;81.55;98363.63;4755837;30;19958;-70
2022/07/16 13:13:08;;;;;;;;;;;;;;;31.39;82.69;98354.97;4755219;30;19954;-70
2022/07/16 13:15:35;;;;;;;;;;;;;;;31.31;83.71;98356.88;4755186;30;19961;-70
2022/07/16 13:18:03;;;;;;;;;;;;;;;31.34;82.34;98346.34;4755602;30;20209;-70
2022/07/16 13:20:31;;;;;;;;;;;;;;;31.35;81.82;98345.78;4740096;30;19956;-70
2022/07/16 13:22:58;;;;;;;;;;;;;;;31.38;88.48;98341.84;4755167;30;19952;-70
2022/07/16 13:25:25;;;;;;;;;;;;;;;31.39;84.69;98343.41;4755154;30;19960;-70
2022/07/16 13:27:52;;;;;;;;;;;;;;;31.46;85.43;98336.28;4756640;30;19979;-70
2022/07/16 13:30:20;;;;;;;;;;;;;;;31.51;82.55;98342.03;4755459;30;19977;-70
2022/07/16 13:32:47;;;;;;;;;;;;;;;31.49;80.46;98336.00;4755060;30;19949;-70
2022/07/16 13:35:15;;;;;;;;;;;;;;;31.52;84.25;98340.69;4755304;30;19955;-70
2022/07/16 13:37:43;;;;;;;;;;;;;;;31.53;78.24;98338.56;4755181;30;20249;-70
2022/07/16 13:40:10;;;;;;;;;;;;;;;31.38;78.04;98333.16;4755522;30;19966;-70
2022/07/16 13:42:37;;;;;;;;;;;;;;;31.49;78.57;98336.00;4754721;30;19950;-70
2022/07/16 13:45:05;;;;;;;;;;;;;;;31.40;79.63;98326.88;4755143;30;19953;-70
2022/07/16 13:47:33;;;;;;;;;;;;;;;31.42;83.34;98321.31;4754788;30;19968;-70
2022/07/16 13:50:00;;;;;;;;;;;;;;;31.51;81.76;98321.00;4755425;30;20258;-70
2022/07/16 13:52:28;;;;;;;;;;;;;;;31.42;78.73;98313.44;4755057;30;19953;-70
2022/07/16 13:54:55;;;;;;;;;;;;;;;31.49;82.08;98312.09;4754729;30;19959;-70
2022/07/16 14:00:08;;;;;;;;;;;;;;;31.45;80.63;98312.38;4755953;30;19955;-69
2022/07/16 14:02:38;;;;;;;;;;;;;;;31.43;82.70;98308.41;4759107;30;19954;-69
2022/07/16 14:05:05;;;;;;;;;;;;;;;31.51;78.92;98301.56;4758831;30;19957;-70
2022/07/16 14:07:32;;;;;;;;;;;;;;;31.56;77.64;98302.81;4742882;30;19969;-70
2022/07/16 14:10:00;;;;;;;;;;;;;;;31.57;78.17;98302.25;4758741;30;19957;-70
2022/07/16 14:12:28;;;;;;;;;;;;;;;31.58;83.17;98300.16;4758595;30;20269;-70
2022/07/16 14:14:55;;;;;;;;;;;;;;;31.59;77.38;98298.84;4758456;30;19956;-70
2022/07/16 14:17:22;;;;;;;;;;;;;;;31.64;76.91;98301.66;4758290;30;19959;-70
2022/07/16 14:19:50;;;;;;;;;;;;;;;31.67;79.40;98294.00;4758197;30;19957;-70
2022/07/16 14:22:17;;;;;;;;;;;;;;;31.47;77.39;98303.94;4757887;30;19955;-70
2022/07/16 14:24:44;;;;;;;;;;;;;;;31.58;76.98;98291.50;4758283;30;20694;-70
2022/07/16 14:27:11;;;;;;;;;;;;;;;31.56;77.60;98294.94;4743065;30;19984;-70
2022/07/16 14:29:39;;;;;;;;;;;;;;;31.58;84.56;98285.72;4758215;30;19955;-70
2022/07/16 14:32:09;;;;;;;;;;;;;;;31.60;80.34;98280.16;4758128;30;20208;-70
2022/07/16 14:34:36;;;;;;;;;;;;;;;31.66;79.90;98278.78;4758199;30;19951;-70
2022/07/16 14:37:04;;;;;;;;;;;;;;;31.63;78.98;98288.53;4758119;30;20248;-70
2022/07/16 14:39:31;;;;;;;;;;;;;;;31.62;78.21;98281.19;4758536;30;19951;-70
2022/07/16 14:41:58;;;;;;;;;;;;;;;31.57;75.33;98278.38;4758188;30;19960;-70
2022/07/16 14:44:26;;;;;;;;;;;;;;;31.66;77.36;98287.47;4758076;30;19959;-70
2022/07/16 14:46:53;;;;;;;;;;;;;;;31.66;78.63;98281.69;4757867;30;19954;-70
2022/07/16 14:49:22;;;;;;;;;;;;;;;31.68;75.33;98281.91;4757458;30;19954;-70
2022/07/16 14:51:50;;;;;;;;;;;;;;;31.76;77.76;98274.22;4757755;30;19964;-70
2022/07/16 14:54:17;;;;;;;;;;;;;;;31.68;75.87;98281.91;4757793;30;19953;-70
2022/07/16 14:56:44;;;;;;;;;;;;;;;31.66;75.75;98266.44;4758135;30;19953;-70
2022/07/16 14:59:12;;;;;;;;;;;;;;;31.68;76.18;98263.78;4758024;30;19985;-70
2022/07/16 15:01:39;;;;;;;;;;;;;;;31.56;73.74;98266.03;4757743;30;19960;-70
2022/07/16 15:04:06;;;;;;;;;;;;;;;31.62;76.59;98266.72;4757458;30;20247;-70
2022/07/16 15:06:37;;;;;;;;;;;;;;;31.58;76.95;98263.38;4757445;30;20231;-70
2022/07/16 15:09:04;;;;;;;;;;;;;;;31.60;76.11;98266.50;4757323;30;19970;-70
2022/07/16 15:11:31;;;;;;;;;;;;;;;31.63;77.21;98258.84;4756365;30;19949;-70
2022/07/16 15:13:59;;;;;;;;;;;;;;;31.58;76.16;98259.69;4742093;30;19957;-70
2022/07/16 15:16:27;;;;;;;;;;;;;;;31.65;73.46;98247.50;4756706;30;19958;-70
2022/07/16 15:18:54;;;;;;;;;;;;;;;31.63;75.34;98253.84;4757899;30;19953;-70
2022/07/16 15:21:21;;;;;;;;;;;;;;;31.64;74.63;98252.50;4757359;30;20250;-70
2022/07/16 15:23:49;;;;;;;;;;;;;;;31.65;73.92;98247.50;4757399;30;19976;-70
2022/07/16 15:26:16;;;;;;;;;;;;;;;31.54;74.29;98245.56;4757355;30;19971;-70
2022/07/16 15:28:43;;;;;;;;;;;;;;;31.55;73.05;98246.31;4757233;30;19967;-70
2022/07/16 15:31:10;;;;;;;;;;;;;;;31.47;74.12;98245.38;4757124;30;19953;-70
2022/07/16 15:33:38;;;;;;;;;;;;;;;31.47;75.44;98246.13;4756903;30;19962;-70
2022/07/16 15:36:09;;;;;;;;;;;;;;;31.51;76.00;98249.53;4757079;30;19952;-70
2022/07/16 15:38:36;;;;;;;;;;;;;;;31.52;74.60;98242.41;4757404;30;20351;-70
2022/07/16 15:41:04;;;;;;;;;;;;;;;31.48;75.13;98235.34;4756732;30;20347;-70
2022/07/16 15:43:31;;;;;;;;;;;;;;;31.47;74.70;98243.22;4741261;30;20275;-70
2022/07/16 15:45:59;;;;;;;;;;;;;;;31.46;73.92;98244.56;4756679;30;19981;-70
2022/07/16 15:48:26;;;;;;;;;;;;;;;31.46;75.45;98233.00;4756881;30;20275;-70
2022/07/16 15:50:53;;;;;;;;;;;;;;;31.54;75.37;98233.19;4757096;30;19958;-70
2022/07/16 15:53:21;;;;;;;;;;;;;;;31.52;75.55;98230.84;4756789;30;19948;-70
2022/07/16 15:55:48;;;;;;;;;;;;;;;31.45;74.40;98230.69;4756949;30;19950;-70
2022/07/16 15:58:16;;;;;;;;;;;;;;;31.51;74.52;98228.50;4756703;30;19964;-70
2022/07/16 16:00:43;;;;;;;;;;;;;;;31.45;76.66;98234.31;4757016;30;19957;-70
2022/07/16 16:03:11;;;;;;;;;;;;;;;31.38;75.01;98234.91;4741170;30;20247;-70
2022/07/16 16:05:39;;;;;;;;;;;;;;;31.38;74.63;98226.22;4756896;30;19955;-70
2022/07/16 16:08:07;;;;;;;;;;;;;;;31.40;73.83;98226.47;4756328;30;19964;-70
2022/07/16 16:10:34;;;;;;;;;;;;;;;31.41;73.67;98222.25;4756705;30;19962;-70
2022/07/16 16:13:02;;;;;;;;;;;;;;;31.33;77.25;98226.28;4756370;30;19951;-69
2022/07/16 16:15:34;;;;;;;;;;;;;;;31.36;74.60;98226.00;4756560;30;19953;-69
2022/07/16 16:18:02;;;;;;;;;;;;;;;31.37;75.90;98226.78;4756556;30;19954;-69
2022/07/16 16:20:30;;;;;;;;;;;;;;;31.37;75.77;98227.56;4756462;30;19955;-69
2022/07/16 16:22:57;;;;;;;;;;;;;;;31.37;76.83;98227.56;4756312;30;19959;-69
2022/07/16 16:25:25;;;;;;;;;;;;;;;31.36;76.92;98217.31;4756580;30;19957;-69
2022/07/16 16:27:52;;;;;;;;;;;;;;;31.38;76.87;98213.88;4756233;30;19976;-70
2022/07/16 16:30:19;;;;;;;;;;;;;;;31.33;76.76;98211.84;4756323;30;19968;-70
2022/07/16 16:32:47;;;;;;;;;;;;;;;31.29;76.83;98208.47;4756227;30;19953;-70
2022/07/16 16:35:14;;;;;;;;;;;;;;;31.23;76.55;98213.53;4756174;30;19964;-70
2022/07/16 16:37:41;;;;;;;;;;;;;;;31.22;76.71;98217.75;4756143;30;19979;-70
2022/07/16 16:40:10;;;;;;;;;;;;;;;31.16;75.67;98218.56;4755937;30;19958;-70
2022/07/16 16:42:37;;;;;;;;;;;;;;;31.13;75.96;98215.97;4756101;30;19955;-70
2022/07/16 16:45:05;;;;;;;;;;;;;;;31.11;75.96;98218.63;4755770;30;19968;-70
2022/07/16 16:47:32;;;;;;;;;;;;;;;31.08;76.05;98219.72;4755983;30;19954;-70
2022/07/16 16:49:59;;;;;;;;;;;;;;;31.04;77.44;98216.31;4755685;30;19976;-70
2022/07/16 16:52:26;;;;;;;;;;;;;;;31.06;78.06;98222.34;4755892;30;20239;-70
2022/07/16 16:54:54;;;;;;;;;;;;;;;31.05;77.51;98221.59;4756029;30;19953;-70
2022/07/16 16:57:21;;;;;;;;;;;;;;;31.04;76.89;98225.00;4755820;30;20249;-70
2022/07/16 16:59:48;;;;;;;;;;;;;;;31.02;77.34;98224.75;4755720;30;20245;-70
2022/07/16 17:02:16;;;;;;;;;;;;;;;31.01;79.22;98212.41;4755983;30;19955;-70
2022/07/16 17:04:43;;;;;;;;;;;;;;;31.00;79.30;98219.53;4755688;30;19954;-70
2022/07/16 17:07:10;;;;;;;;;;;;;;;31.00;81.76;98225.31;4755504;30;19952;-70
2022/07/16 17:09:38;;;;;;;;;;;;;;;30.95;82.64;98225.34;4755505;30;19964;-70
2022/07/16 17:12:05;;;;;;;;;;;;;;;30.88;81.60;98220.13;4755537;30;20024;-70
2022/07/16 17:14:32;;;;;;;;;;;;;;;30.86;81.38;98217.75;4755390;30;20249;-69
2022/07/16 17:16:59;;;;;;;;;;;;;;;30.84;81.60;98222.50;4755337;30;19946;-69
2022/07/16 17:19:30;;;;;;;;;;;;;;;30.84;82.17;98225.41;4755085;30;19964;-70
2022/07/16 17:21:57;;;;;;;;;;;;;;;30.81;84.85;98227.25;4755059;30;19955;-70
2022/07/16 17:24:24;;;;;;;;;;;;;;;30.75;84.57;98219.97;4757480;30;19962;-70
2022/07/16 17:26:52;;;;;;;;;;;;;;;30.71;84.69;98219.47;4754873;30;19978;-70
2022/07/16 17:29:19;;;;;;;;;;;;;;;30.66;85.46;98218.22;4754945;30;19969;-70
2022/07/16 17:31:46;;;;;;;;;;;;;;;30.63;84.97;98215.59;4755156;30;19957;-70
2022/07/16 17:34:13;;;;;;;;;;;;;;;30.58;84.29;98213.53;4755452;30;19949;-70
2022/07/16 17:36:41;;;;;;;;;;;;;;;30.58;85.12;98225.06;4755146;30;19956;-70
2022/07/16 17:39:08;;;;;;;;;;;;;;;30.51;85.46;98212.03;4755171;30;19947;-70
2022/07/16 17:41:35;;;;;;;;;;;;;;;30.47;85.83;98223.03;4755162;30;19953;-70
2022/07/16 17:44:03;;;;;;;;;;;;;;;30.44;85.12;98222.03;4754943;30;19956;-70
2022/07/16 17:46:31;;;;;;;;;;;;;;;30.42;86.03;98224.66;4754894;30;19955;-70
2022/07/16 17:51:44;;;;;;;;;;;;;;;30.34;86.32;98226.56;4755438;30;19958;-70
2022/07/16 17:54:11;;;;;;;;;;;;;;;30.30;85.79;98220.25;4754781;30;19965;-70
2022/07/16 17:56:38;;;;;;;;;;;;;;;30.28;85.56;98224.97;4754830;30;20342;-70
2022/07/16 17:59:06;;;;;;;;;;;;;;;30.22;88.26;98230.81;4754738;30;19970;-70
2022/07/16 18:01:33;;;;;;;;;;;;;;;30.18;86.73;98223.72;4754769;30;20264;-70
2022/07/16 18:04:00;;;;;;;;;;;;;;;30.14;88.35;98229.00;4754917;30;19957;-70
2022/07/16 18:06:28;;;;;;;;;;;;;;;30.08;88.67;98229.03;4754724;30;19952;-70
2022/07/16 18:08:55;;;;;;;;;;;;;;;30.01;89.95;98234.56;4754540;30;19982;-70
2022/07/16 18:11:22;;;;;;;;;;;;;;;29.94;88.73;98233.03;4754924;30;19960;-70
2022/07/16 18:13:49;;;;;;;;;;;;;;;29.92;87.31;98236.47;4754845;30;19949;-70
2022/07/16 18:16:17;;;;;;;;;;;;;;;29.90;88.01;98244.06;4755133;30;20346;-70
2022/07/16 18:18:44;;;;;;;;;;;;;;;29.85;89.35;98244.88;4754738;30;19957;-70
2022/07/16 18:21:11;;;;;;;;;;;;;;;29.80;88.68;98239.91;4754809;30;19950;-70
2022/07/16 18:23:38;;;;;;;;;;;;;;;29.77;89.90;98240.97;4754394;30;19959;-70
2022/07/16 18:26:05;;;;;;;;;;;;;;;29.74;89.03;98239.09;4738702;30;19987;-70
2022/07/16 18:28:33;;;;;;;;;;;;;;;29.67;90.44;98243.31;4754753;30;19958;-70
2022/07/16 18:31:00;;;;;;;;;;;;;;;29.65;89.49;98245.16;4755092;30;19954;-70
2022/07/16 18:33:27;;;;;;;;;;;;;;;29.62;89.84;98246.22;4754353;30;19955;-70
2022/07/16 18:35:55;;;;;;;;;;;;;;;29.60;88.66;98245.97;4754326;30;20636;-70
2022/07/16 18:38:22;;;;;;;;;;;;;;;29.60;88.25;98254.63;4739362;30;19952;-70
2022/07/16 18:40:49;;;;;;;;;;;;;;;29.59;87.95;98258.81;4754235;30;19960;-70
2022/07/16 18:43:16;;;;;;;;;;;;;;;29.58;89.82;98268.78;4739073;30;19953;-70
2022/07/16 18:45:44;;;;;;;;;;;;;;;29.54;90.74;98263.25;4754734;30;19953;-70
2022/07/16 18:48:11;;;;;;;;;;;;;;;29.52;87.35;98270.88;4758246;30;19962;-70
2022/07/16 18:50:38;;;;;;;;;;;;;;;29.48;90.54;98273.25;4757745;30;19975;-70
2022/07/16 18:53:06;;;;;;;;;;;;;;;29.40;91.04;98275.09;4757435;30;20343;-70
2022/07/16 18:55:33;;;;;;;;;;;;;;;29.30;91.92;98280.34;4757875;30;19950;-70
2022/07/16 18:58:01;;;;;;;;;;;;;;;29.23;92.54;98284.53;4757764;30;19952;-70
2022/07/16 19:00:28;;;;;;;;;;;;;;;29.12;93.44;98284.53;4758245;30;20243;-70
2022/07/16 19:02:55;;;;;;;;;;;;;;;29.03;92.59;98281.91;4757620;30;19969;-70
2022/07/16 19:05:22;;;;;;;;;;;;;;;28.94;87.75;98287.94;4758032;30;20331;-70
2022/07/16 19:07:50;;;;;;;;;;;;;;;28.90;79.52;98286.63;4757547;30;19958;-70
2022/07/16 19:10:17;;;;;;;;;;;;;;;28.83;75.95;98287.91;4757620;30;19981;-70
2022/07/16 19:12:44;;;;;;;;;;;;;;;28.86;64.49;98291.84;4757935;30;20237;-70
2022/07/16 19:15:11;;;;;;;;;;;;;;;28.87;66.40;98299.97;4759970;30;19954;-70
2022/07/16 19:17:39;;;;;;;;;;;;;;;28.84;67.42;98303.88;4742142;30;19955;-70
2022/07/16 19:20:06;;;;;;;;;;;;;;;28.83;68.29;98307.28;4757167;30;19984;-70
2022/07/16 19:22:34;;;;;;;;;;;;;;;28.78;68.06;98316.69;4757491;30;19972;-70
2022/07/16 19:25:01;;;;;;;;;;;;;;;28.72;67.92;98313.00;4757414;30;19960;-70
2022/07/16 19:27:28;;;;;;;;;;;;;;;28.64;68.78;98318.50;4757678;30;19973;-70
2022/07/16 19:29:56;;;;;;;;;;;;;;;28.49;68.76;98318.69;4757053;30;19973;-70
2022/07/16 19:32:24;;;;;;;;;;;;;;;28.39;68.71;98319.47;4757094;30;19981;-70
2022/07/16 19:34:51;;;;;;;;;;;;;;;28.29;70.64;98321.00;4756950;30;19965;-69
2022/07/16 19:37:18;;;;;;;;;;;;;;;28.18;69.74;98326.69;4756947;30;19951;-69
2022/07/16 19:39:46;;;;;;;;;;;;;;;28.08;69.11;98325.34;4757012;30;19966;-70
2022/07/16 19:42:13;;;;;;;;;;;;;;;27.97;70.13;98331.81;4757382;30;19954;-70
2022/07/16 19:44:40;;;;;;;;;;;;;;;27.90;69.72;98327.31;4757587;30;19973;-70
2022/07/16 19:47:07;;;;;;;;;;;;;;;27.84;71.31;98331.47;4757404;30;19946;-70
2022/07/16 19:49:35;;;;;;;;;;;;;;;27.76;71.67;98339.78;4756913;30;20644;-70
2022/07/16 19:52:02;;;;;;;;;;;;;;;27.72;71.82;98338.44;4757046;30;19954;-70
2022/07/16 19:54:29;;;;;;;;;;;;;;;27.67;70.74;98345.75;4757248;30;19950;-70
2022/07/16 19:59:42;;;;;;;;;;;;;;;27.58;70.13;98351.69;4756160;30;19950;-70
2022/07/16 20:02:09;;;;;;;;;;;;;;;27.56;71.57;98356.38;4756704;30;19963;-70
2022/07/16 20:04:37;;;;;;;;;;;;;;;27.59;71.24;98364.75;4756925;30;19952;-70
2022/07/16 20:07:05;;;;;;;;;;;;;;;27.60;70.32;98360.59;4757126;30;19975;-70
2022/07/16 20:09:32;;;;;;;;;;;;;;;27.59;70.30;98366.81;4757110;30;19976;-70
2022/07/16 20:11:59;;;;;;;;;;;;;;;27.56;70.12;98374.38;4756478;30;20241;-70
2022/07/16 20:14:27;;;;;;;;;;;;;;;27.52;69.82;98373.84;4756351;30;19957;-70
2022/07/16 20:16:55;;;;;;;;;;;;;;;27.50;70.38;98378.50;4756547;30;19959;-70
2022/07/16 20:19:22;;;;;;;;;;;;;;;27.45;70.02;98377.19;4756544;30;19951;-70
2022/07/16 20:22:09;;;;;;;;;;;;;;;27.37;70.03;98373.16;4756267;30;19978;-70
2022/07/16 20:24:36;;;;;;;;;;;;;;;27.32;72.15;98379.63;4756321;30;19959;-70
2022/07/16 20:27:03;;;;;;;;;;;;;;;27.24;73.29;98370.69;4756192;30;19971;-70
2022/07/16 20:29:31;;;;;;;;;;;;;;;27.14;74.34;98377.91;4756701;30;19956;-70
2022/07/16 20:31:59;;;;;;;;;;;;;;;27.04;75.92;98385.16;4756346;30;19955;-70
2022/07/16 20:34:26;;;;;;;;;;;;;;;26.99;77.07;98385.88;4741243;30;19961;-70
2022/07/16 20:36:53;;;;;;;;;;;;;;;26.98;74.21;98386.38;4756224;30;19962;-70
2022/07/16 20:39:21;;;;;;;;;;;;;;;27.02;72.12;98393.47;4755526;30;19950;-70
2022/07/16 20:41:48;;;;;;;;;;;;;;;27.09;71.38;98397.97;4740494;30;19948;-70
2022/07/16 20:44:15;;;;;;;;;;;;;;;27.14;72.06;98400.13;4756087;30;20370;-70
2022/07/16 20:46:43;;;;;;;;;;;;;;;27.12;72.92;98391.22;4756468;30;19959;-70
2022/07/16 20:49:10;;;;;;;;;;;;;;;27.10;73.75;98402.41;4755935;30;19966;-70
2022/07/16 20:51:38;;;;;;;;;;;;;;;27.01;73.79;98391.09;4756268;30;19974;-70
2022/07/16 20:54:05;;;;;;;;;;;;;;;26.96;75.35;98394.72;4756126;30;20249;-70
2022/07/16 20:56:33;;;;;;;;;;;;;;;26.90;75.33;98400.38;4755899;30;20325;-70
2022/07/16 20:59:01;;;;;;;;;;;;;;;26.83;75.98;98403.69;4756201;30;19962;-70
2022/07/16 21:01:28;;;;;;;;;;;;;;;26.78;77.02;98407.28;4755858;30;20256;-70
2022/07/16 21:03:55;;;;;;;;;;;;;;;26.70;76.30;98409.03;4756065;30;19958;-70
2022/07/16 21:06:23;;;;;;;;;;;;;;;26.67;77.00;98410.81;4755907;30;19950;-70
2022/07/16 21:08:50;;;;;;;;;;;;;;;26.62;76.52;98420.16;4755377;30;20679;-70
2022/07/16 21:11:17;;;;;;;;;;;;;;;26.56;76.80;98413.53;4755198;30;20258;-70
2022/07/16 21:13:44;;;;;;;;;;;;;;;26.50;76.10;98424.16;4755841;30;20063;-70
2022/07/16 21:16:12;;;;;;;;;;;;;;;26.50;76.12;98431.97;4755451;30;19949;-70
2022/07/16 21:18:39;;;;;;;;;;;;;;;26.49;75.71;98430.41;4755334;30;19952;-70
2022/07/16 21:21:06;;;;;;;;;;;;;;;26.47;75.09;98445.25;4755207;30;19956;-70
2022/07/16 21:23:34;;;;;;;;;;;;;;;26.49;73.40;98447.59;4755211;30;19954;-70
2022/07/16 21:26:01;;;;;;;;;;;;;;;26.45;74.17;98452.78;4755429;30;19979;-70
2022/07/16 21:28:28;;;;;;;;;;;;;;;26.40;74.58;98451.41;4755256;30;19955;-70
2022/07/16 21:30:56;;;;;;;;;;;;;;;26.37;75.85;98458.16;4755142;30;19977;-70
2022/07/16 21:33:23;;;;;;;;;;;;;;;26.34;77.23;98459.13;4755248;30;19959;-70
2022/07/16 21:35:50;;;;;;;;;;;;;;;26.28;77.11;98460.38;4755347;30;19965;-70
2022/07/16 21:38:17;;;;;;;;;;;;;;;26.24;75.88;98462.66;4739963;30;19960;-69
2022/07/16 21:40:45;;;;;;;;;;;;;;;26.19;78.28;98464.13;4755149;30;19958;-69
2022/07/16 21:43:13;;;;;;;;;;;;;;;26.16;76.65;98468.03;4755166;30;19955;-70
2022/07/16 21:45:40;;;;;;;;;;;;;;;26.13;78.57;98466.16;4755083;30;19953;-70
2022/07/16 21:48:08;;;;;;;;;;;;;;;26.07;77.58;98470.97;4754561;30;19952;-70
2022/07/16 21:50:35;;;;;;;;;;;;;;;26.05;77.36;98465.75;4755391;30;19982;-70
2022/07/16 21:53:02;;;;;;;;;;;;;;;26.04;77.05;98464.16;4755159;30;19951;-70
2022/07/16 21:55:29;;;;;;;;;;;;;;;26.01;77.45;98470.09;4739659;30;19955;-69
2022/07/16 21:57:57;;;;;;;;;;;;;;;26.06;76.87;98463.69;4754787;30;19957;-69
2022/07/16 22:00:24;;;;;;;;;;;;;;;26.14;74.49;98466.94;4754989;30;19955;-69
2022/07/16 22:02:52;;;;;;;;;;;;;;;26.21;74.20;98460.78;4754607;30;20256;-69
2022/07/16 22:05:19;;;;;;;;;;;;;;;26.27;74.90;98470.25;4754736;30;19949;-69
2022/07/16 22:07:46;;;;;;;;;;;;;;;26.33;73.23;98465.38;4754841;30;19952;-69
2022/07/16 22:10:13;;;;;;;;;;;;;;;26.37;73.52;98468.81;4754774;30;19952;-69
2022/07/16 22:12:41;;;;;;;;;;;;;;;26.39;73.11;98469.91;4754511;30;19966;-69
2022/07/16 22:15:09;;;;;;;;;;;;;;;26.36;73.85;98476.63;4755093;30;20318;-69
2022/07/16 22:17:36;;;;;;;;;;;;;;;26.31;75.31;98465.88;4755028;30;20267;-70
2022/07/16 22:22:49;;;;;;;;;;;;;;;26.31;82.00;98473.69;4758337;30;19948;-70
2022/07/16 22:25:16;;;;;;;;;;;;;;;26.28;81.72;98466.88;4758140;30;19957;-70
2022/07/16 22:27:44;;;;;;;;;;;;;;;26.30;82.21;98475.78;4758263;30;19974;-70
2022/07/16 22:30:11;;;;;;;;;;;;;;;26.32;86.71;98472.41;4758191;30;19958;-70
2022/07/16 22:32:38;;;;;;;;;;;;;;;26.24;88.51;98477.75;4758279;30;19958;-70